Time;durP1;ratioP1;P1;durP2;ratioP2;P2;SDS_P1;SDS_P2;PMS_P1;PMS_P2;Temp;Humidity;BMP_temperature;BMP_pressure;BME280_temperature;BME280_humidity;BME280_pressure;Samples;Min_cycle;Max_cycle;Signal;HPM_P1;HPM_P2
2023/05/15 00:01:38;;;;;;;6.83;6.13;;;21.20;92.60;;;;;;4964113;28;20418;-92
2023/05/15 00:04:04;;;;;;;6.53;5.93;;;21.20;92.80;;;;;;4948412;28;20421;-93
2023/05/15 00:06:30;;;;;;;6.80;6.10;;;21.20;93.00;;;;;;4964388;28;20419;-93
2023/05/15 00:08:56;;;;;;;6.93;6.30;;;21.20;93.50;;;;;;4948219;28;20523;-92
2023/05/15 00:11:22;;;;;;;6.80;6.20;;;21.20;92.50;;;;;;4948243;28;20179;-91
2023/05/15 00:13:49;;;;;;;6.43;5.90;;;21.10;92.50;;;;;;4964083;28;20430;-92
2023/05/15 00:16:15;;;;;;;7.53;6.57;;;21.10;92.50;;;;;;4947863;28;20481;-93
2023/05/15 00:18:41;;;;;;;7.70;6.90;;;21.10;92.50;;;;;;4964117;28;20892;-93
2023/05/15 00:21:07;;;;;;;7.33;6.10;;;21.10;92.60;;;;;;4948121;28;20523;-93
2023/05/15 00:23:33;;;;;;;7.13;6.47;;;21.10;92.60;;;;;;4948822;28;20483;-93
2023/05/15 00:25:59;;;;;;;6.70;6.00;;;21.10;92.60;;;;;;4947970;28;20454;-93
2023/05/15 00:28:25;;;;;;;7.87;6.93;;;21.00;92.60;;;;;;4963961;28;20225;-93
2023/05/15 00:30:51;;;;;;;7.70;6.90;;;21.00;92.60;;;;;;4948127;28;20434;-92
2023/05/15 00:33:17;;;;;;;8.73;7.50;;;21.00;92.70;;;;;;4963865;28;20444;-93
2023/05/15 00:35:43;;;;;;;7.37;6.73;;;21.00;92.70;;;;;;4947646;28;20489;-92
2023/05/15 00:38:09;;;;;;;7.67;6.97;;;21.00;92.80;;;;;;4963574;28;20454;-92
2023/05/15 00:40:37;;;;;;;7.50;6.80;;;21.00;92.80;;;;;;4947903;28;20769;-93
2023/05/15 00:43:04;;;;;;;9.00;6.73;;;21.00;92.80;;;;;;4947850;28;20414;-93
2023/05/15 00:45:30;;;;;;;6.97;6.37;;;21.00;92.90;;;;;;4947609;28;20529;-92
2023/05/15 00:47:57;;;;;;;10.07;6.83;;;20.90;92.80;;;;;;4963839;28;20822;-93
2023/05/15 00:50:24;;;;;;;8.03;6.70;;;20.90;92.80;;;;;;4963544;28;20429;-93
2023/05/15 00:52:50;;;;;;;7.90;7.10;;;20.90;92.90;;;;;;4947615;28;20516;-92
2023/05/15 00:55:16;;;;;;;7.77;6.90;;;20.90;92.90;;;;;;4947332;28;20538;-93
2023/05/15 00:57:43;;;;;;;10.80;6.57;;;20.90;92.90;;;;;;4947152;28;20431;-93
2023/05/15 01:00:10;;;;;;;7.53;6.80;;;20.90;92.90;;;;;;4947431;28;20434;-92
2023/05/15 01:02:37;;;;;;;7.63;6.90;;;20.90;92.90;;;;;;4947574;28;20428;-94
2023/05/15 01:05:04;;;;;;;7.70;7.00;;;20.80;92.90;;;;;;4979373;28;20422;-93
2023/05/15 01:07:39;;;;;;;7.40;6.70;;;20.80;92.90;;;;;;4963439;28;20993;-93
2023/05/15 01:10:07;;;;;;;7.50;6.70;;;20.80;93.00;;;;;;4979500;28;20425;-92
2023/05/15 01:12:34;;;;;;;10.13;7.53;;;20.80;93.00;;;;;;4947466;28;20450;-92
2023/05/15 01:15:01;;;;;;;7.30;6.60;;;20.80;93.10;;;;;;4963260;28;20433;-93
2023/05/15 01:17:27;;;;;;;7.77;6.93;;;20.80;93.10;;;;;;4947332;28;20457;-93
2023/05/15 01:19:55;;;;;;;8.60;7.40;;;20.70;93.10;;;;;;4963323;28;20445;-93
2023/05/15 01:22:43;;;;;;;9.13;8.23;;;20.70;93.10;;;;;;4979184;28;20440;-93
2023/05/15 01:25:11;;;;;;;8.60;7.80;;;20.70;93.20;;;;;;4963394;28;20883;-91
2023/05/15 01:27:53;;;;;;;9.80;7.53;;;20.70;93.20;;;;;;4963198;28;20457;-92
2023/05/15 01:30:31;;;;;;;8.17;7.37;;;20.70;93.30;;;;;;4963078;28;20515;-93
2023/05/15 01:33:24;;;;;;;8.50;7.70;;;20.70;93.30;;;;;;4966431;28;20428;-92
2023/05/15 01:35:53;;;;;;;9.27;7.93;;;20.60;93.30;;;;;;4998847;28;20472;-93
2023/05/15 01:38:41;;;;;;;9.00;7.60;;;20.70;93.40;;;;;;4966346;28;20436;-92
2023/05/15 01:41:28;;;;;;;9.57;8.57;;;20.70;93.40;;;;;;4959815;28;20930;-92
2023/05/15 01:44:23;;;;;;;8.50;7.40;;;20.70;93.50;;;;;;4959837;28;20423;-93
2023/05/15 01:46:52;;;;;;;8.40;7.57;;;20.60;93.50;;;;;;4957827;28;20533;-92
2023/05/15 01:49:22;;;;;;;11.73;7.20;;;20.60;93.50;;;;;;4943833;28;20418;-93
2023/05/15 01:51:53;;;;;;;7.83;7.00;;;20.60;93.50;;;;;;4960171;28;20438;-93
2023/05/15 01:54:21;;;;;;;8.27;7.57;;;20.60;93.50;;;;;;4990589;28;20456;-93
2023/05/15 01:56:48;;;;;;;9.53;8.20;;;20.50;93.50;;;;;;4982201;28;20478;-93
2023/05/15 01:59:15;;;;;;;8.23;7.40;;;20.60;93.60;;;;;;4982376;28;20444;-93
2023/05/15 02:01:43;;;;;;;8.77;8.07;;;20.50;93.60;;;;;;4982322;28;20464;-91
2023/05/15 02:04:10;;;;;;;8.97;8.07;;;20.50;93.60;;;;;;4998275;28;20840;-92
2023/05/15 02:06:36;;;;;;;8.90;8.00;;;20.50;93.60;;;;;;4966047;28;20448;-93
2023/05/15 02:09:03;;;;;;;8.77;7.87;;;20.50;93.70;;;;;;4966233;28;20431;-93
2023/05/15 02:11:29;;;;;;;8.60;7.80;;;20.50;93.70;;;;;;4969867;28;20454;-93
2023/05/15 02:13:56;;;;;;;9.33;8.43;;;20.40;93.60;;;;;;4969795;28;20438;-93
2023/05/15 02:16:22;;;;;;;8.70;7.40;;;20.40;93.70;;;;;;4985317;28;20505;-92
2023/05/15 02:18:49;;;;;;;8.57;7.63;;;20.40;93.70;;;;;;4985070;28;20565;-93
2023/05/15 02:21:15;;;;;;;8.53;7.73;;;20.40;93.70;;;;;;4969388;28;20429;-93
2023/05/15 02:23:41;;;;;;;8.83;8.00;;;20.40;93.70;;;;;;4969512;28;20919;-93
2023/05/15 02:26:29;;;;;;;8.17;7.37;;;20.40;93.80;;;;;;4969316;28;20444;-93
2023/05/15 02:29:20;;;;;;;8.47;7.67;;;20.40;93.80;;;;;;4969500;28;20420;-93
2023/05/15 02:31:58;;;;;;;10.00;9.00;;;20.40;93.80;;;;;;4985325;28;20456;-93
2023/05/15 02:34:42;;;;;;;9.53;8.53;;;20.40;93.80;;;;;;4985449;28;20436;-92
2023/05/15 02:37:12;;;;;;;7.50;6.90;;;20.30;93.80;;;;;;4985161;28;20460;-92
2023/05/15 02:39:41;;;;;;;8.80;7.90;;;20.30;93.80;;;;;;4969233;28;20635;-93
2023/05/15 02:42:08;;;;;;;8.20;7.50;;;20.30;93.90;;;;;;4985421;28;20429;-93
2023/05/15 02:44:36;;;;;;;8.10;7.40;;;20.30;93.90;;;;;;4947544;28;20458;-93
2023/05/15 02:47:04;;;;;;;9.17;8.37;;;20.30;93.90;;;;;;4978549;28;20482;-93
2023/05/15 02:49:32;;;;;;;8.43;7.73;;;20.30;93.90;;;;;;4962427;28;20437;-92
2023/05/15 02:51:58;;;;;;;8.97;8.00;;;20.30;94.30;;;;;;4962242;28;20462;-94
2023/05/15 02:54:24;;;;;;;8.97;8.17;;;20.20;93.90;;;;;;4978252;28;20522;-93
2023/05/15 02:56:50;;;;;;;8.43;7.50;;;20.30;94.00;;;;;;4978084;28;20530;-94
2023/05/15 02:59:18;;;;;;;7.57;6.87;;;20.20;94.00;;;;;;4962115;28;20452;-92
2023/05/15 03:01:45;;;;;;;8.53;7.83;;;20.20;94.00;;;;;;4984826;28;20437;-93
2023/05/15 03:04:13;;;;;;;8.23;7.53;;;20.20;94.00;;;;;;4968680;28;20460;-92
2023/05/15 03:06:39;;;;;;;8.77;7.97;;;20.20;94.10;;;;;;4968294;28;20453;-93
2023/05/15 03:09:05;;;;;;;8.70;8.00;;;20.20;94.10;;;;;;4968777;28;20437;-93
2023/05/15 03:11:31;;;;;;;7.63;6.97;;;20.20;94.10;;;;;;4968590;28;20487;-93
2023/05/15 03:13:59;;;;;;;10.07;7.60;;;20.20;94.10;;;;;;4968565;28;20441;-93
2023/05/15 03:16:26;;;;;;;9.23;7.70;;;20.10;94.00;;;;;;4968210;28;20961;-92
2023/05/15 03:18:52;;;;;;;9.20;8.40;;;20.10;94.10;;;;;;4949356;28;20566;-92
2023/05/15 03:21:18;;;;;;;8.40;7.60;;;20.10;94.10;;;;;;4964978;28;20508;-93
2023/05/15 03:23:44;;;;;;;11.70;8.63;;;20.10;94.10;;;;;;4965061;28;20570;-93
2023/05/15 03:26:13;;;;;;;8.90;8.00;;;20.10;94.20;;;;;;4965176;28;20443;-94
2023/05/15 03:28:39;;;;;;;8.43;7.63;;;20.10;94.20;;;;;;4949341;28;20429;-93
2023/05/15 03:31:07;;;;;;;7.97;7.23;;;20.10;94.20;;;;;;4964844;28;20775;-94
2023/05/15 03:33:33;;;;;;;9.43;8.10;;;20.10;94.20;;;;;;4965042;28;20520;-92
2023/05/15 03:35:59;;;;;;;8.90;8.10;;;20.10;94.20;;;;;;4980737;28;20488;-93
2023/05/15 03:38:25;;;;;;;9.10;8.20;;;20.00;94.20;;;;;;4949403;28;20425;-93
2023/05/15 03:40:51;;;;;;;8.90;7.97;;;20.00;94.20;;;;;;4965142;28;20457;-93
2023/05/15 03:43:17;;;;;;;9.53;8.40;;;20.00;94.20;;;;;;4964815;28;20512;-93
2023/05/15 03:45:43;;;;;;;9.57;8.67;;;20.00;94.20;;;;;;4948657;28;20442;-94
2023/05/15 03:48:09;;;;;;;10.27;8.20;;;20.00;94.20;;;;;;4948653;28;20444;-93
2023/05/15 03:50:35;;;;;;;9.00;8.07;;;20.00;94.20;;;;;;4950159;28;20430;-93
2023/05/15 03:53:02;;;;;;;8.53;7.73;;;20.00;94.20;;;;;;4945400;28;20476;-93
2023/05/15 03:55:28;;;;;;;9.00;8.20;;;19.90;94.20;;;;;;4945219;28;20482;-95
2023/05/15 03:57:54;;;;;;;9.03;8.13;;;19.90;94.20;;;;;;4945083;28;20547;-93
2023/05/15 04:00:20;;;;;;;9.47;8.60;;;19.90;94.20;;;;;;4961184;28;20426;-94
2023/05/15 04:02:47;;;;;;;10.90;9.10;;;19.90;94.30;;;;;;4944935;28;20462;-94
2023/05/15 04:05:13;;;;;;;11.33;10.10;;;19.90;94.30;;;;;;4960825;28;20423;-94
2023/05/15 04:07:39;;;;;;;10.53;9.47;;;19.90;94.30;;;;;;4929636;28;20427;-94
2023/05/15 04:10:06;;;;;;;10.00;8.97;;;19.90;94.30;;;;;;4966420;28;20426;-94
2023/05/15 04:12:34;;;;;;;10.83;9.80;;;19.90;94.30;;;;;;4983816;28;20417;-94
2023/05/15 04:15:20;;;;;;;10.67;9.57;;;19.90;94.30;;;;;;4967409;28;20808;-94
2023/05/15 04:17:50;;;;;;;10.60;9.50;;;19.90;94.30;;;;;;4967590;28;20818;-94
2023/05/15 04:20:18;;;;;;;11.03;9.80;;;19.80;94.30;;;;;;4983474;28;20487;-94
2023/05/15 04:22:44;;;;;;;11.33;10.00;;;19.80;94.30;;;;;;4983209;28;20472;-94
2023/05/15 04:25:12;;;;;;;11.20;9.97;;;19.80;94.30;;;;;;4983624;28;20759;-94
2023/05/15 04:27:38;;;;;;;10.97;9.97;;;19.80;94.40;;;;;;4983321;28;20503;-93
2023/05/15 04:30:07;;;;;;;13.73;10.53;;;19.80;94.30;;;;;;4967184;28;20424;-93
2023/05/15 04:32:34;;;;;;;10.90;9.60;;;19.80;94.30;;;;;;4982438;28;20485;-94
2023/05/15 04:35:01;;;;;;;11.97;10.83;;;19.80;94.30;;;;;;4982719;28;21098;-94
2023/05/15 04:37:28;;;;;;;11.67;10.13;;;19.70;94.30;;;;;;4983036;28;20432;-93
2023/05/15 04:39:54;;;;;;;12.23;10.53;;;19.70;94.30;;;;;;5016540;28;20506;-93
2023/05/15 04:42:20;;;;;;;11.83;10.60;;;19.70;94.40;;;;;;4966750;28;20455;-92
2023/05/15 04:44:46;;;;;;;12.43;11.33;;;19.70;94.40;;;;;;4983086;28;20425;-93
2023/05/15 04:47:12;;;;;;;12.30;11.03;;;19.70;94.40;;;;;;4982892;28;20439;-94
2023/05/15 04:49:40;;;;;;;12.97;11.73;;;19.70;94.40;;;;;;4982972;28;20541;-93
2023/05/15 04:52:06;;;;;;;12.60;11.40;;;19.70;94.40;;;;;;4999068;28;20758;-93
2023/05/15 04:54:35;;;;;;;12.40;11.20;;;19.70;94.40;;;;;;4998923;28;20466;-92
2023/05/15 04:57:01;;;;;;;17.30;12.33;;;19.70;94.40;;;;;;4966211;28;20475;-94
2023/05/15 04:59:27;;;;;;;12.97;11.37;;;19.70;94.40;;;;;;4948022;28;20439;-94
2023/05/15 05:01:54;;;;;;;12.27;11.07;;;19.60;94.40;;;;;;4963644;28;20766;-94
2023/05/15 05:04:29;;;;;;;12.20;11.00;;;19.60;94.40;;;;;;4963551;28;20832;-95
2023/05/15 05:06:55;;;;;;;14.20;11.77;;;19.60;94.40;;;;;;4963802;28;20491;-92
2023/05/15 05:09:23;;;;;;;13.23;12.03;;;19.60;94.50;;;;;;4963348;28;20432;-93
2023/05/15 05:11:49;;;;;;;14.57;12.07;;;19.60;94.50;;;;;;4963312;28;20440;-93
2023/05/15 05:14:15;;;;;;;16.23;12.30;;;19.60;94.50;;;;;;4947461;28;20464;-93
2023/05/15 05:16:44;;;;;;;13.70;12.27;;;19.60;94.50;;;;;;4979287;28;20468;-93
2023/05/15 05:19:10;;;;;;;13.60;12.30;;;19.60;94.50;;;;;;4947506;28;20441;-95
2023/05/15 05:21:36;;;;;;;14.30;13.00;;;19.50;94.40;;;;;;4963318;28;20754;-94
2023/05/15 05:24:02;;;;;;;15.77;12.87;;;19.60;94.50;;;;;;4947256;28;20849;-92
2023/05/15 05:26:28;;;;;;;14.30;12.53;;;19.50;94.50;;;;;;4963094;28;20464;-94
2023/05/15 05:28:54;;;;;;;14.87;13.33;;;19.50;94.40;;;;;;4963322;28;20467;-92
2023/05/15 05:31:20;;;;;;;15.47;13.97;;;19.50;94.40;;;;;;4963462;28;20444;-93
2023/05/15 05:33:48;;;;;;;14.70;13.10;;;19.50;94.50;;;;;;4963240;28;20460;-92
2023/05/15 05:36:14;;;;;;;13.80;12.33;;;19.50;94.50;;;;;;4947123;28;20484;-92
2023/05/15 05:38:41;;;;;;;14.00;12.30;;;19.50;94.50;;;;;;4963093;28;20752;-93
2023/05/15 05:41:07;;;;;;;15.17;13.73;;;19.40;94.50;;;;;;4947236;28;20468;-92
2023/05/15 05:43:33;;;;;;;15.23;12.93;;;19.50;94.50;;;;;;4964117;28;20495;-93
2023/05/15 05:45:59;;;;;;;13.07;11.50;;;19.50;94.60;;;;;;4983166;28;20437;-93
2023/05/15 05:48:25;;;;;;;14.57;13.07;;;19.40;94.50;;;;;;4982899;28;20409;-93
2023/05/15 05:50:51;;;;;;;14.30;12.80;;;19.40;94.50;;;;;;4950827;28;20449;-94
2023/05/15 05:53:17;;;;;;;15.77;12.40;;;19.40;94.50;;;;;;4966483;28;20452;-93
2023/05/15 05:55:43;;;;;;;14.97;13.57;;;19.40;94.50;;;;;;4966665;28;20550;-93
2023/05/15 05:58:09;;;;;;;15.50;13.30;;;19.40;94.50;;;;;;4966640;28;20891;-93
2023/05/15 06:00:36;;;;;;;13.87;12.47;;;19.40;94.50;;;;;;4950519;28;20495;-93
2023/05/15 06:03:02;;;;;;;14.47;12.97;;;19.40;94.50;;;;;;4984160;28;20439;-94
2023/05/15 06:05:28;;;;;;;14.20;12.80;;;19.40;94.50;;;;;;4969680;28;20424;-92
2023/05/15 06:07:54;;;;;;;13.60;12.27;;;19.30;94.40;;;;;;4986228;28;20439;-91
2023/05/15 06:10:20;;;;;;;12.77;11.47;;;19.40;94.50;;;;;;4984431;28;20440;-92
2023/05/15 06:12:47;;;;;;;14.53;13.03;;;19.30;94.50;;;;;;4962978;28;20476;-95
2023/05/15 06:15:15;;;;;;;13.77;12.33;;;19.30;94.40;;;;;;4946991;28;20430;-93
2023/05/15 06:17:41;;;;;;;15.70;13.67;;;19.30;94.40;;;;;;4962753;28;20437;-93
2023/05/15 06:20:08;;;;;;;17.33;12.20;;;19.30;94.40;;;;;;4947002;28;20528;-93
2023/05/15 06:22:38;;;;;;;13.80;12.10;;;19.30;94.40;;;;;;4946818;28;20423;-93
2023/05/15 06:25:05;;;;;;;12.83;11.53;;;19.30;94.40;;;;;;4947138;28;20468;-93
2023/05/15 06:27:32;;;;;;;13.13;11.73;;;19.30;94.40;;;;;;4963460;28;20422;-93
2023/05/15 06:29:59;;;;;;;13.80;12.40;;;19.30;94.40;;;;;;4946879;28;20430;-93
2023/05/15 06:32:25;;;;;;;12.20;10.93;;;19.30;94.40;;;;;;4962826;28;20450;-93
2023/05/15 06:34:51;;;;;;;13.90;10.67;;;19.30;94.50;;;;;;4962521;28;20426;-93
2023/05/15 06:37:17;;;;;;;13.77;12.27;;;19.30;94.40;;;;;;4930532;28;20472;-92
2023/05/15 06:39:43;;;;;;;13.20;11.90;;;19.30;94.50;;;;;;4946713;28;20934;-93
2023/05/15 06:42:09;;;;;;;14.23;11.67;;;19.30;94.50;;;;;;4962606;28;21075;-92
2023/05/15 06:44:35;;;;;;;15.20;12.30;;;19.20;94.40;;;;;;4946560;28;20214;-92
2023/05/15 06:47:01;;;;;;;12.67;11.37;;;19.20;94.40;;;;;;4946515;28;20454;-90
2023/05/15 06:49:27;;;;;;;13.27;11.97;;;19.20;94.40;;;;;;4946622;28;20614;-90
2023/05/15 06:55:26;;;;;;;14.70;12.87;;;19.20;94.40;;;;;;4945583;28;20466;-91
2023/05/15 06:57:52;;;;;;;12.87;11.50;;;19.20;94.40;;;;;;4946095;28;20993;-93
2023/05/15 07:00:21;;;;;;;13.63;12.37;;;19.20;94.40;;;;;;4946232;28;20497;-93
2023/05/15 07:02:47;;;;;;;13.37;11.87;;;19.20;94.40;;;;;;4946321;28;20429;-92
2023/05/15 07:05:13;;;;;;;13.07;11.77;;;19.20;94.40;;;;;;4962055;28;20431;-92
2023/05/15 07:07:39;;;;;;;12.20;11.00;;;19.20;94.40;;;;;;4964239;28;20455;-92
2023/05/15 07:10:06;;;;;;;12.70;11.43;;;19.20;94.40;;;;;;4984610;28;20467;-91
2023/05/15 07:12:33;;;;;;;13.73;12.27;;;19.10;94.30;;;;;;4968509;28;20471;-95
2023/05/15 07:14:59;;;;;;;14.43;11.97;;;19.10;94.30;;;;;;4984416;28;20415;-91
2023/05/15 07:17:25;;;;;;;12.50;10.97;;;19.10;94.20;;;;;;4968064;28;20519;-92
2023/05/15 07:19:50;;;;;;;12.90;11.67;;;19.10;94.20;;;;;;4968366;28;20441;-92
2023/05/15 07:22:16;;;;;;;12.93;11.80;;;19.10;94.20;;;;;;4984640;28;20424;-92
2023/05/15 07:24:42;;;;;;;13.77;11.60;;;19.10;94.20;;;;;;4984506;28;20823;-93
2023/05/15 07:27:08;;;;;;;12.60;11.33;;;19.10;94.20;;;;;;4968474;28;20432;-94
2023/05/15 07:29:34;;;;;;;13.40;11.67;;;19.10;94.20;;;;;;4984281;28;20519;-92
2023/05/15 07:32:00;;;;;;;14.00;11.53;;;19.10;94.20;;;;;;4984358;28;20530;-93
2023/05/15 07:34:26;;;;;;;13.90;12.50;;;19.10;94.20;;;;;;5000417;28;20184;-92
2023/05/15 07:36:52;;;;;;;12.00;10.70;;;19.10;94.20;;;;;;4967603;28;20474;-93
2023/05/15 07:39:18;;;;;;;12.33;11.03;;;19.10;94.20;;;;;;4983943;28;20189;-92
2023/05/15 07:41:45;;;;;;;15.03;11.93;;;19.10;94.20;;;;;;4983794;28;20893;-93
2023/05/15 07:44:11;;;;;;;12.30;10.87;;;19.10;94.20;;;;;;4968553;28;20435;-91
2023/05/15 07:46:37;;;;;;;11.60;10.40;;;19.10;94.20;;;;;;4983706;28;20435;-93
2023/05/15 07:49:04;;;;;;;12.30;11.10;;;19.10;94.20;;;;;;4967903;28;20452;-93
2023/05/15 07:51:29;;;;;;;13.30;11.90;;;19.10;94.20;;;;;;4968034;28;20812;-93
2023/05/15 07:53:55;;;;;;;13.20;12.00;;;19.10;94.20;;;;;;4983904;28;20425;-92
2023/05/15 07:56:22;;;;;;;12.77;11.43;;;19.10;94.20;;;;;;4983771;28;20471;-92
2023/05/15 07:58:48;;;;;;;11.90;10.70;;;19.10;94.20;;;;;;4968132;28;20464;-92
2023/05/15 08:01:14;;;;;;;11.27;10.17;;;19.10;94.20;;;;;;4983687;28;20440;-93
2023/05/15 08:03:40;;;;;;;11.67;10.57;;;19.10;94.20;;;;;;4967577;28;20510;-93
2023/05/15 08:06:07;;;;;;;11.40;10.40;;;19.10;94.20;;;;;;4983583;28;20426;-93
2023/05/15 08:08:33;;;;;;;13.37;12.00;;;19.10;94.20;;;;;;4967357;28;20575;-92
2023/05/15 08:10:59;;;;;;;11.67;10.47;;;19.10;94.20;;;;;;4967295;28;20435;-92
2023/05/15 08:13:25;;;;;;;12.17;10.70;;;19.10;94.20;;;;;;4983708;28;20428;-92
2023/05/15 08:15:51;;;;;;;13.33;11.37;;;19.10;94.20;;;;;;4999539;28;20781;-93
2023/05/15 08:18:17;;;;;;;13.27;11.97;;;19.10;94.20;;;;;;4983298;28;20815;-93
2023/05/15 08:20:43;;;;;;;12.60;11.27;;;19.10;94.20;;;;;;4967420;28;20434;-92
2023/05/15 08:23:09;;;;;;;12.87;11.53;;;19.10;94.10;;;;;;5016474;28;20412;-94
2023/05/15 08:25:34;;;;;;;12.00;10.90;;;19.10;94.10;;;;;;4999660;28;20421;-93
2023/05/15 08:28:01;;;;;;;13.03;11.07;;;19.10;94.10;;;;;;4983291;28;20452;-95
2023/05/15 08:30:27;;;;;;;11.67;10.60;;;19.10;94.10;;;;;;4983219;28;20435;-93
2023/05/15 08:32:53;;;;;;;14.00;11.73;;;19.20;94.10;;;;;;4999987;28;20424;-93
2023/05/15 08:35:19;;;;;;;11.80;10.60;;;19.20;94.20;;;;;;4983018;28;20444;-93
2023/05/15 08:37:45;;;;;;;11.23;10.13;;;19.20;94.20;;;;;;4967042;28;20234;-93
2023/05/15 08:40:11;;;;;;;10.63;9.60;;;19.20;94.20;;;;;;4966803;28;20425;-92
2023/05/15 08:42:52;;;;;;;13.07;10.23;;;19.20;94.20;;;;;;4983086;28;20400;-93
2023/05/15 08:45:19;;;;;;;11.40;10.20;;;19.20;94.10;;;;;;4983183;28;20491;-92
2023/05/15 08:47:45;;;;;;;11.00;9.90;;;19.20;94.10;;;;;;4982785;28;20518;-92
2023/05/15 08:50:13;;;;;;;12.50;11.10;;;19.30;94.10;;;;;;4982906;28;20431;-92
2023/05/15 08:52:44;;;;;;;11.13;9.90;;;19.30;94.50;;;;;;4999006;28;20409;-93
2023/05/15 08:55:10;;;;;;;12.30;10.77;;;19.30;94.10;;;;;;4982635;28;20463;-93
2023/05/15 08:57:37;;;;;;;11.77;10.57;;;19.30;93.90;;;;;;4982763;28;20432;-92
2023/05/15 09:00:07;;;;;;;10.83;9.73;;;19.30;93.90;;;;;;4982725;28;20902;-91
2023/05/15 09:02:38;;;;;;;11.47;10.27;;;19.30;94.00;;;;;;4983165;28;20435;-93
2023/05/15 09:05:05;;;;;;;13.23;11.93;;;19.30;93.90;;;;;;4999018;28;20434;-93
2023/05/15 09:07:31;;;;;;;15.40;11.03;;;19.30;93.90;;;;;;4982356;28;20755;-93
2023/05/15 09:09:58;;;;;;;10.60;9.50;;;19.40;93.90;;;;;;4982729;28;20416;-92
2023/05/15 09:12:25;;;;;;;11.73;10.60;;;19.30;93.80;;;;;;4983115;28;20429;-93
2023/05/15 09:15:06;;;;;;;11.97;10.97;;;19.40;93.90;;;;;;4982628;28;20451;-94
2023/05/15 09:17:32;;;;;;;13.13;11.20;;;19.40;93.80;;;;;;4998630;28;20487;-92
2023/05/15 09:19:58;;;;;;;11.47;10.33;;;19.40;93.90;;;;;;4969673;28;20910;-94
2023/05/15 09:22:24;;;;;;;11.27;10.07;;;19.40;93.90;;;;;;4986606;28;20408;-94
2023/05/15 09:24:56;;;;;;;12.93;11.63;;;19.50;93.90;;;;;;4970801;28;20441;-92
2023/05/15 09:27:23;;;;;;;11.47;10.30;;;19.50;93.80;;;;;;4970510;28;20457;-94
2023/05/15 09:29:53;;;;;;;9.13;8.23;;;19.50;93.80;;;;;;4970447;28;20427;-94
2023/05/15 09:32:19;;;;;;;11.23;10.03;;;19.50;93.80;;;;;;4970458;28;20440;-92
2023/05/15 09:34:45;;;;;;;11.23;10.20;;;19.50;93.80;;;;;;4970303;28;20486;-91
2023/05/15 09:37:29;;;;;;;11.70;10.60;;;19.50;93.80;;;;;;4970179;28;20476;-96
2023/05/15 09:40:07;;;;;;;12.90;11.60;;;19.60;93.80;;;;;;4970272;28;20550;-93
2023/05/15 09:42:37;;;;;;;9.40;8.40;;;19.60;93.80;;;;;;4991601;28;20433;-93
2023/05/15 09:45:04;;;;;;;10.90;9.80;;;19.60;93.70;;;;;;4950963;28;20425;-94
2023/05/15 09:47:31;;;;;;;11.97;9.53;;;19.60;93.70;;;;;;4951078;28;20518;-91
2023/05/15 09:49:57;;;;;;;11.03;9.70;;;19.60;93.60;;;;;;4954227;28;20428;-92
2023/05/15 09:52:23;;;;;;;11.30;10.10;;;19.70;93.70;;;;;;4967114;28;20425;-93
2023/05/15 09:54:50;;;;;;;12.53;9.90;;;19.70;93.50;;;;;;4966548;28;20441;-92
2023/05/15 09:57:21;;;;;;;10.60;9.50;;;19.70;93.30;;;;;;4966223;28;20465;-92
2023/05/15 09:59:48;;;;;;;10.83;9.83;;;19.70;93.30;;;;;;4966669;28;20766;-94
2023/05/15 10:02:23;;;;;;;12.13;9.77;;;19.70;93.20;;;;;;4950579;28;20826;-92
2023/05/15 10:04:56;;;;;;;13.50;10.00;;;19.80;93.20;;;;;;4966541;28;20506;-94
2023/05/15 10:07:29;;;;;;;14.70;10.70;;;19.80;93.20;;;;;;4966522;28;20507;-93
2023/05/15 10:09:55;;;;;;;10.43;9.13;;;19.80;93.10;;;;;;4966790;28;20428;-93
2023/05/15 10:12:22;;;;;;;10.27;9.20;;;19.90;93.20;;;;;;4966393;28;20548;-94
2023/05/15 10:14:50;;;;;;;9.53;8.53;;;19.90;93.10;;;;;;4950478;28;20495;-92
2023/05/15 10:17:19;;;;;;;9.70;8.70;;;19.90;93.20;;;;;;4966067;28;20476;-92
2023/05/15 10:19:50;;;;;;;10.17;9.13;;;19.90;93.20;;;;;;4965912;28;20829;-91
2023/05/15 10:22:26;;;;;;;10.17;9.10;;;20.00;93.20;;;;;;4982181;28;20432;-94
2023/05/15 10:25:09;;;;;;;13.17;9.60;;;20.00;93.00;;;;;;4966334;28;20531;-92
2023/05/15 10:27:37;;;;;;;10.43;8.40;;;20.10;92.80;;;;;;4950234;28;20741;-94
2023/05/15 10:30:04;;;;;;;10.77;9.30;;;20.10;92.90;;;;;;4964670;28;20433;-94
2023/05/15 10:32:32;;;;;;;10.27;9.27;;;20.10;93.00;;;;;;4965872;28;20892;-91
2023/05/15 10:34:59;;;;;;;9.73;8.60;;;20.10;92.90;;;;;;4966008;28;20442;-93
2023/05/15 10:37:26;;;;;;;9.13;8.23;;;20.20;92.90;;;;;;4981812;28;20471;-93
2023/05/15 10:39:54;;;;;;;9.97;8.97;;;20.20;92.90;;;;;;4981909;28;20753;-93
2023/05/15 10:42:22;;;;;;;9.10;8.20;;;20.30;93.20;;;;;;4965921;28;20572;-95
2023/05/15 10:44:49;;;;;;;9.93;9.03;;;20.30;92.70;;;;;;4949749;28;20769;-94
2023/05/15 10:47:15;;;;;;;9.90;8.40;;;20.30;92.60;;;;;;4965736;28;20422;-94
2023/05/15 10:49:41;;;;;;;10.33;9.30;;;20.30;92.60;;;;;;4950119;28;20986;-92
2023/05/15 10:52:08;;;;;;;9.57;8.70;;;20.40;92.50;;;;;;4946544;28;20479;-93
2023/05/15 10:54:34;;;;;;;9.43;8.53;;;20.40;92.40;;;;;;4946482;28;20423;-93
2023/05/15 10:57:00;;;;;;;9.53;8.60;;;20.40;92.30;;;;;;4946201;28;20475;-94
2023/05/15 10:59:31;;;;;;;9.30;8.40;;;20.50;92.40;;;;;;4957589;28;20755;-93
2023/05/15 11:02:17;;;;;;;9.40;8.50;;;20.50;92.40;;;;;;4946197;28;20432;-89
2023/05/15 11:04:43;;;;;;;8.13;7.40;;;20.50;92.20;;;;;;4946710;28;20846;-92
2023/05/15 11:07:17;;;;;;;11.23;8.87;;;20.60;92.10;;;;;;4930452;28;20501;-92
2023/05/15 11:09:43;;;;;;;9.90;8.10;;;20.60;92.20;;;;;;4945889;28;20474;-91
2023/05/15 11:12:10;;;;;;;9.10;8.20;;;20.60;92.10;;;;;;4962033;28;20443;-92
2023/05/15 11:14:43;;;;;;;9.67;8.77;;;20.60;91.90;;;;;;4945887;28;20594;-93
2023/05/15 11:17:16;;;;;;;9.27;8.37;;;20.70;91.60;;;;;;4930155;28;20811;-93
2023/05/15 11:19:48;;;;;;;11.17;8.87;;;20.70;91.30;;;;;;4946306;28;20420;-93
2023/05/15 11:22:24;;;;;;;8.77;7.87;;;20.70;91.20;;;;;;4961547;28;20719;-92
2023/05/15 11:25:09;;;;;;;9.10;8.30;;;20.80;91.20;;;;;;4930029;28;20495;-93
2023/05/15 11:27:43;;;;;;;8.60;7.50;;;20.80;91.20;;;;;;4929927;28;20838;-94
2023/05/15 11:30:25;;;;;;;8.63;7.83;;;20.80;91.10;;;;;;4945852;28;20460;-88
2023/05/15 11:33:03;;;;;;;9.30;8.30;;;20.90;91.10;;;;;;4961378;28;20428;-90
2023/05/15 11:35:33;;;;;;;9.27;8.37;;;20.90;90.90;;;;;;4929866;28;20437;-93
2023/05/15 11:38:08;;;;;;;9.00;8.10;;;21.00;90.80;;;;;;4945829;28;20451;-93
2023/05/15 11:40:47;;;;;;;9.17;8.17;;;21.00;90.60;;;;;;4929920;28;20498;-93
2023/05/15 11:43:23;;;;;;;10.43;8.80;;;21.00;90.70;;;;;;4944891;28;20440;-90
2023/05/15 11:45:54;;;;;;;8.37;7.57;;;21.00;90.80;;;;;;4945772;28;20434;-94
2023/05/15 11:48:22;;;;;;;8.53;7.73;;;21.00;90.70;;;;;;4929507;28;20491;-93
2023/05/15 11:50:48;;;;;;;8.43;7.63;;;21.10;90.50;;;;;;4929440;28;20466;-93
2023/05/15 11:53:15;;;;;;;7.67;7.00;;;21.10;90.50;;;;;;4945399;28;20420;-93
2023/05/15 11:55:43;;;;;;;8.17;7.47;;;21.10;90.60;;;;;;4929178;28;20847;-91
2023/05/15 11:58:15;;;;;;;8.57;7.63;;;21.20;90.60;;;;;;4945220;28;20555;-93
2023/05/15 12:00:42;;;;;;;9.13;8.30;;;21.20;90.70;;;;;;4945159;28;20440;-92
2023/05/15 12:03:16;;;;;;;8.83;7.90;;;21.20;90.70;;;;;;4929329;28;20458;-93
2023/05/15 12:05:43;;;;;;;8.87;7.70;;;21.30;90.80;;;;;;4945243;28;20475;-92
2023/05/15 12:08:11;;;;;;;9.57;7.40;;;21.30;90.90;;;;;;4977903;28;20759;-94
2023/05/15 12:10:44;;;;;;;7.90;7.20;;;21.30;90.90;;;;;;4945011;28;20475;-93
2023/05/15 12:13:11;;;;;;;8.27;7.47;;;21.30;90.80;;;;;;4929299;28;20552;-93
2023/05/15 12:15:39;;;;;;;8.83;7.90;;;21.40;90.80;;;;;;4944485;28;20626;-93
2023/05/15 12:18:07;;;;;;;8.43;7.57;;;21.40;90.60;;;;;;4960740;28;20543;-95
2023/05/15 12:20:34;;;;;;;10.67;8.10;;;21.40;90.50;;;;;;4929017;28;20424;-93
2023/05/15 12:23:04;;;;;;;7.67;6.97;;;21.50;90.40;;;;;;4929078;28;20577;-89
2023/05/15 12:25:34;;;;;;;8.30;7.50;;;21.50;90.40;;;;;;4944891;28;20436;-92
2023/05/15 12:28:06;;;;;;;10.40;7.00;;;21.50;90.30;;;;;;4929011;28;20512;-92
2023/05/15 12:30:33;;;;;;;7.90;7.10;;;21.50;90.30;;;;;;4944787;28;20423;-92
2023/05/15 12:33:05;;;;;;;8.77;7.43;;;21.60;90.20;;;;;;4961039;28;20768;-93
2023/05/15 12:35:42;;;;;;;7.80;7.00;;;21.60;89.70;;;;;;4967014;28;20444;-92
2023/05/15 12:38:12;;;;;;;7.60;6.90;;;21.60;88.50;;;;;;4983263;28;20796;-93
2023/05/15 12:40:38;;;;;;;7.70;7.00;;;21.70;88.40;;;;;;4967624;28;20439;-94
2023/05/15 12:43:08;;;;;;;6.93;6.37;;;21.70;88.70;;;;;;4967009;28;20428;-93
2023/05/15 12:45:36;;;;;;;7.57;6.33;;;21.70;88.60;;;;;;4966890;28;20565;-93
2023/05/15 12:48:03;;;;;;;7.93;6.93;;;21.80;89.00;;;;;;4966669;28;20452;-94